createdAt,value
2022-07-31T00:04:24.097Z,16.25
2022-07-31T00:09:52.449Z,13.63
2022-07-31T00:14:48.594Z,20.90
2022-07-31T00:19:50.406Z,12.25
2022-07-31T00:24:52.201Z,14.02
2022-07-31T00:29:54.016Z,14.95
2022-07-31T00:34:55.843Z,17.73
2022-07-31T00:39:58.753Z,14.90
2022-07-31T00:45:01.124Z,11.82
2022-07-31T00:50:04.922Z,16.90
2022-07-31T00:55:07.695Z,22.48
2022-07-31T01:00:10.465Z,13.95
2022-07-31T01:05:12.320Z,15.57
2022-07-31T01:10:36.558Z,13.10
2022-07-31T01:15:39.922Z,14.55
2022-07-31T01:20:45.622Z,15.05
2022-07-31T01:25:50.481Z,13.15
2022-07-31T01:31:28.346Z,11.25
2022-07-31T01:36:36.923Z,11.52
2022-07-31T01:41:46.341Z,13.15
2022-07-31T01:46:49.934Z,11.80
2022-07-31T01:51:53.258Z,10.60
2022-07-31T01:56:59.642Z,10.65
2022-07-31T02:02:04.850Z,12.70
2022-07-31T02:07:08.443Z,12.38
2022-07-31T02:12:12.668Z,14.30
2022-07-31T02:17:22.261Z,14.50
2022-07-31T02:23:01.598Z,9.43
2022-07-31T02:28:08.137Z,9.68
2022-07-31T02:33:14.008Z,14.93
2022-07-31T02:38:23.373Z,11.55
2022-07-31T02:43:28.722Z,9.70
2022-07-31T02:48:32.798Z,11.88
2022-07-31T02:53:39.427Z,12.95
2022-07-31T02:58:44.326Z,10.30
2022-07-31T03:03:59.322Z,16.48
2022-07-31T03:09:03.411Z,18.35
2022-07-31T03:14:08.611Z,11.80
2022-07-31T03:19:11.410Z,16.98
2022-07-31T03:24:13.614Z,13.27
2022-07-31T03:29:41.198Z,10.50
2022-07-31T03:34:37.871Z,15.02
2022-07-31T03:39:40.207Z,12.70
2022-07-31T03:44:46.560Z,18.23
2022-07-31T03:49:49.307Z,13.57
2022-07-31T03:54:51.606Z,12.73
2022-07-31T03:59:57.775Z,9.52
2022-07-31T04:05:00.285Z,11.60
2022-07-31T04:10:02.962Z,13.48
2022-07-31T04:15:06.311Z,11.18
2022-07-31T04:20:09.491Z,15.30
2022-07-31T04:25:11.350Z,11.20
2022-07-31T04:30:31.969Z,12.55
2022-07-31T04:35:35.323Z,9.15
2022-07-31T04:40:37.745Z,19.42
2022-07-31T04:45:39.607Z,11.95
2022-07-31T04:50:42.522Z,7.93
2022-07-31T04:56:04.937Z,10.15
2022-07-31T05:01:07.052Z,9.68
2022-07-31T05:06:12.821Z,7.68
2022-07-31T05:11:23.999Z,11.07
2022-07-31T05:16:27.509Z,7.63
2022-07-31T05:21:33.112Z,12.45
2022-07-31T05:27:00.400Z,11.27
2022-07-31T05:32:02.748Z,8.45
2022-07-31T05:37:07.462Z,10.70
2022-07-31T05:42:12.200Z,6.20
2022-07-31T05:47:40.148Z,4.72
2022-07-31T05:52:42.838Z,8.25
2022-07-31T05:58:20.468Z,4.78
2022-07-31T06:03:23.861Z,7.38
2022-07-31T06:08:34.895Z,10.10
2022-07-31T06:13:36.982Z,5.72
2022-07-31T06:19:05.242Z,5.13
2022-07-31T06:24:07.741Z,7.15
2022-07-31T06:29:19.285Z,5.25
2022-07-31T06:34:42.136Z,7.45
2022-07-31T06:39:56.064Z,9.55
2022-07-31T06:45:12.052Z,7.45
2022-07-31T06:50:45.928Z,7.18
2022-07-31T06:56:11.234Z,3.28
2022-07-31T07:01:16.908Z,5.47
2022-07-31T07:06:21.046Z,2.60
2022-07-31T07:11:24.248Z,4.93
2022-07-31T07:16:26.800Z,4.93
2022-07-31T07:21:29.121Z,5.70
2022-07-31T07:26:31.450Z,9.75
2022-07-31T07:31:34.960Z,5.20
2022-07-31T07:36:37.034Z,5.97
2022-07-31T07:41:44.716Z,2.90
2022-07-31T07:46:47.184Z,4.25
2022-07-31T07:51:58.801Z,5.55
2022-07-31T07:57:09.734Z,4.97
2022-07-31T08:02:35.279Z,5.05
2022-07-31T08:07:42.043Z,4.85
2022-07-31T08:13:07.995Z,6.73
2022-07-31T08:18:36.293Z,5.32
2022-07-31T08:23:38.451Z,6.05
2022-07-31T08:28:50.394Z,6.00
2022-07-31T08:33:55.165Z,9.30
2022-07-31T08:38:57.543Z,4.38
2022-07-31T08:44:17.824Z,3.33
2022-07-31T08:49:31.567Z,5.20
2022-07-31T08:54:35.763Z,7.70
2022-07-31T08:59:41.928Z,3.65
2022-07-31T09:04:44.052Z,5.50
2022-07-31T09:09:51.866Z,8.10
2022-07-31T09:14:55.382Z,12.38
2022-07-31T09:19:57.399Z,3.70
2022-07-31T09:25:12.929Z,7.88
2022-07-31T09:30:16.220Z,6.25
2022-07-31T09:35:47.225Z,4.22
2022-07-31T09:40:55.483Z,4.03
2022-07-31T09:46:06.604Z,4.18
2022-07-31T09:51:08.814Z,3.97
2022-07-31T09:56:12.738Z,4.95
2022-07-31T10:01:15.125Z,6.35
2022-07-31T10:06:20.455Z,6.50
2022-07-31T10:11:24.911Z,4.07
2022-07-31T10:22:10.049Z,5.72
2022-07-31T10:27:14.525Z,4.30
2022-07-31T10:32:17.563Z,14.65
2022-07-31T10:38:01.502Z,18.13
2022-07-31T10:43:29.476Z,7.30
2022-07-31T10:48:53.786Z,7.25
2022-07-31T10:54:16.052Z,9.93
2022-07-31T10:59:45.615Z,8.02
2022-07-31T11:04:50.623Z,7.30
2022-07-31T11:10:21.952Z,5.22
2022-07-31T11:15:34.041Z,8.02
2022-07-31T11:21:13.683Z,8.43
2022-07-31T11:26:32.910Z,7.68
2022-07-31T11:31:42.481Z,10.80
2022-07-31T11:36:49.271Z,7.45
2022-07-31T11:41:54.493Z,4.32
2022-07-31T11:46:56.680Z,7.65
2022-07-31T11:52:04.089Z,4.88
2022-07-31T11:57:07.217Z,14.13
2022-07-31T12:02:11.589Z,9.85
2022-07-31T12:07:14.290Z,7.13
2022-07-31T12:12:19.267Z,4.90
2022-07-31T12:17:22.680Z,9.43
2022-07-31T12:22:25.655Z,4.32
2022-07-31T12:27:28.268Z,4.50
2022-07-31T12:32:30.343Z,7.88
2022-07-31T12:37:43.963Z,9.23
2022-07-31T12:42:46.454Z,6.63
2022-07-31T12:47:53.937Z,3.42
2022-07-31T12:53:00.851Z,6.93
2022-07-31T12:58:03.207Z,5.63
2022-07-31T13:03:05.883Z,3.22
2022-07-31T13:08:09.020Z,3.97
2022-07-31T13:13:11.170Z,4.47
2022-07-31T13:18:13.452Z,6.35
2022-07-31T13:23:15.348Z,10.38
2022-07-31T13:28:17.628Z,3.22
2022-07-31T13:33:19.722Z,8.18
2022-07-31T13:38:21.920Z,4.35
2022-07-31T13:43:24.057Z,8.57
2022-07-31T13:48:26.333Z,3.45
2022-07-31T13:53:28.333Z,3.15
2022-07-31T13:58:30.228Z,5.32
2022-07-31T14:03:32.351Z,9.75
2022-07-31T14:08:49.651Z,5.40
2022-07-31T14:13:53.178Z,1.70
2022-07-31T14:18:55.415Z,4.43
2022-07-31T14:23:57.589Z,7.93
2022-07-31T14:29:01.384Z,18.15
2022-07-31T14:34:05.215Z,6.03
2022-07-31T14:39:07.605Z,15.30
2022-07-31T14:44:09.784Z,6.75
2022-07-31T14:49:12.950Z,2.33
2022-07-31T14:54:15.093Z,10.63
2022-07-31T14:59:17.141Z,8.30
2022-07-31T15:04:19.172Z,5.13
2022-07-31T15:09:23.213Z,1.27
2022-07-31T15:14:25.132Z,3.33
2022-07-31T15:19:26.978Z,9.15
2022-07-31T15:24:30.066Z,6.03
2022-07-31T15:30:04.709Z,2.90
2022-07-31T15:34:54.984Z,2.47
2022-07-31T15:40:02.347Z,2.70
2022-07-31T15:45:09.845Z,2.30
2022-07-31T15:50:14.576Z,1.08
2022-07-31T15:55:17.612Z,3.45
2022-07-31T16:00:19.544Z,4.28
2022-07-31T16:05:36.648Z,7.18
2022-07-31T16:10:39.296Z,6.15
2022-07-31T16:15:41.674Z,7.20
2022-07-31T16:20:43.695Z,2.00
2022-07-31T16:25:45.881Z,4.32
2022-07-31T16:30:47.849Z,8.25
2022-07-31T16:35:49.849Z,2.47
2022-07-31T16:40:53.550Z,2.67
2022-07-31T16:45:56.273Z,4.68
2022-07-31T16:50:59.214Z,5.07
2022-07-31T16:56:02.004Z,3.10
2022-07-31T17:01:53.159Z,1.83
2022-07-31T17:06:36.057Z,4.90
2022-07-31T17:11:40.376Z,1.80
2022-07-31T17:16:47.040Z,4.22
2022-07-31T17:21:52.648Z,3.97
2022-07-31T17:26:55.370Z,2.75
2022-07-31T17:31:57.706Z,1.92
2022-07-31T17:36:59.637Z,3.95
2022-07-31T17:42:02.722Z,3.65
2022-07-31T17:47:06.123Z,1.33
2022-07-31T17:52:08.424Z,4.18
2022-07-31T17:57:10.528Z,3.72
2022-07-31T18:02:13.058Z,8.15
2022-07-31T18:07:18.134Z,0.93
2022-07-31T18:12:19.981Z,5.38
2022-07-31T18:17:22.451Z,2.33
2022-07-31T18:22:24.327Z,3.05
2022-07-31T18:27:26.433Z,3.05
2022-07-31T18:32:31.810Z,2.55
2022-07-31T18:37:34.055Z,2.53
2022-07-31T18:42:36.135Z,4.22
2022-07-31T18:47:38.430Z,5.45
2022-07-31T18:52:40.383Z,13.07
2022-07-31T18:57:42.469Z,13.43
2022-07-31T19:02:44.495Z,3.20
2022-07-31T19:07:46.488Z,9.27
2022-07-31T19:12:51.045Z,3.22
2022-07-31T19:17:58.351Z,2.08
2022-07-31T19:23:04.273Z,2.70
2022-07-31T19:28:07.056Z,2.70
2022-07-31T19:33:14.063Z,2.50
2022-07-31T19:38:21.606Z,3.42
2022-07-31T19:43:23.975Z,1.55
2022-07-31T19:48:25.948Z,3.58
2022-07-31T19:53:27.900Z,4.18
2022-07-31T19:58:29.725Z,5.60
2022-07-31T20:03:31.963Z,1.85
2022-07-31T20:08:34.239Z,5.70
2022-07-31T20:13:38.700Z,3.30
2022-07-31T20:18:40.755Z,6.40
2022-07-31T20:23:42.881Z,2.67
2022-07-31T20:28:44.816Z,9.23
2022-07-31T20:33:57.094Z,2.05
2022-07-31T20:38:59.920Z,3.40
2022-07-31T20:44:01.832Z,2.13
2022-07-31T20:49:04.064Z,4.72
2022-07-31T20:54:05.952Z,3.80
2022-07-31T20:59:07.774Z,4.38
2022-07-31T21:04:10.011Z,7.07
2022-07-31T21:09:11.829Z,2.53
2022-07-31T21:14:13.655Z,3.60
2022-07-31T21:19:15.496Z,4.60
2022-07-31T21:24:17.810Z,3.38
2022-07-31T21:29:19.938Z,2.13
2022-07-31T21:34:21.919Z,3.40
2022-07-31T21:39:25.883Z,5.22
2022-07-31T21:44:27.882Z,4.57
2022-07-31T21:49:34.731Z,4.32
2022-07-31T21:54:36.628Z,2.33
2022-07-31T21:59:38.439Z,4.05
2022-07-31T22:05:00.219Z,2.92
2022-07-31T22:10:03.444Z,2.70
2022-07-31T22:15:07.256Z,7.47
2022-07-31T22:20:10.104Z,4.05
2022-07-31T22:25:13.332Z,2.45
2022-07-31T22:30:15.736Z,8.02
2022-07-31T22:35:17.875Z,2.70
2022-07-31T22:40:21.921Z,4.97
2022-07-31T22:45:23.924Z,4.18
2022-07-31T22:50:26.044Z,3.45
2022-07-31T22:55:27.917Z,7.32
2022-07-31T23:00:29.762Z,5.63
2022-07-31T23:06:03.049Z,4.95
2022-07-31T23:10:53.545Z,3.38
2022-07-31T23:15:55.343Z,2.53
2022-07-31T23:20:57.164Z,7.93
2022-07-31T23:25:58.982Z,4.80
2022-07-31T23:31:00.804Z,4.75
2022-07-31T23:36:02.648Z,2.63
2022-07-31T23:41:04.636Z,4.03
2022-07-31T23:46:06.764Z,2.97
2022-07-31T23:51:08.558Z,2.78
2022-07-31T23:56:14.334Z,6.47
